Time;durP1;ratioP1;P1;durP2;ratioP2;P2;SDS_P1;SDS_P2;PMS_P1;PMS_P2;Temp;Humidity;BMP_temperature;BMP_pressure;BME280_temperature;BME280_humidity;BME280_pressure;Samples;Min_cycle;Max_cycle;Signal;HPM_P1;HPM_P2
2022/11/26 00:01:54;;;;;;;18.67;5.93;;;6.90;47.80;;;;;;7363976;19;20027;-72
2022/11/26 00:04:24;;;;;;;15.45;5.00;;;6.80;47.80;;;;;;7378234;19;20048;-73
2022/11/26 00:06:54;;;;;;;14.80;5.10;;;6.70;47.80;;;;;;7384480;19;20021;-70
2022/11/26 00:09:26;;;;;;;15.82;4.72;;;6.70;48.50;;;;;;7361323;19;20022;-72
2022/11/26 00:11:56;;;;;;;15.80;5.00;;;6.70;49.00;;;;;;7365462;19;20022;-72
2022/11/26 00:14:26;;;;;;;12.45;4.95;;;6.60;49.10;;;;;;7364779;19;20020;-71
2022/11/26 00:16:55;;;;;;;15.48;5.68;;;6.60;49.80;;;;;;7388930;19;20014;-72
2022/11/26 00:19:25;;;;;;;16.50;5.35;;;6.60;50.10;;;;;;7389234;19;20031;-72
2022/11/26 00:21:55;;;;;;;16.13;5.15;;;6.60;50.40;;;;;;7389991;19;20085;-72
2022/11/26 00:24:30;;;;;;;16.42;5.88;;;6.60;50.70;;;;;;7390762;19;20391;-72
2022/11/26 00:27:01;;;;;;;14.40;6.35;;;6.60;51.50;;;;;;7391402;19;20025;-72
2022/11/26 00:29:31;;;;;;;16.95;5.80;;;6.60;51.50;;;;;;7389533;19;20019;-72
2022/11/26 00:32:01;;;;;;;15.63;5.55;;;6.60;51.60;;;;;;7390660;19;20563;-72
2022/11/26 00:34:31;;;;;;;15.77;5.53;;;6.50;51.60;;;;;;7390683;19;20014;-72
2022/11/26 00:37:01;;;;;;;15.32;6.00;;;6.60;51.60;;;;;;7387095;19;20047;-72
2022/11/26 00:39:33;;;;;;;19.58;6.65;;;6.60;51.60;;;;;;7388769;19;20060;-72
2022/11/26 00:42:03;;;;;;;18.90;6.90;;;6.60;51.60;;;;;;7390599;19;20420;-71
2022/11/26 00:44:33;;;;;;;17.40;6.45;;;6.60;51.70;;;;;;7390530;19;20034;-71
2022/11/26 00:47:04;;;;;;;18.30;6.13;;;6.60;51.70;;;;;;7388363;19;20404;-71
2022/11/26 00:49:33;;;;;;;12.85;6.72;;;6.60;51.60;;;;;;7391729;19;20007;-71
2022/11/26 00:52:04;;;;;;;22.27;7.55;;;6.60;51.70;;;;;;7390250;19;20025;-71
2022/11/26 00:54:36;;;;;;;16.13;6.15;;;6.60;51.60;;;;;;7390009;19;20478;-72
2022/11/26 00:57:06;;;;;;;15.55;6.20;;;6.60;51.80;;;;;;7388291;19;20406;-72
2022/11/26 00:59:36;;;;;;;17.90;6.38;;;6.60;51.60;;;;;;7388148;19;20007;-72
2022/11/26 01:02:06;;;;;;;20.63;6.47;;;6.60;51.60;;;;;;7389560;19;20490;-72
2022/11/26 01:04:36;;;;;;;13.00;5.50;;;6.60;51.60;;;;;;7389963;19;20495;-72
2022/11/26 01:07:06;;;;;;;15.73;5.65;;;6.60;52.10;;;;;;7389744;19;20014;-72
2022/11/26 01:09:40;;;;;;;21.15;6.07;;;6.70;51.30;;;;;;7387843;19;20012;-72
2022/11/26 01:12:15;;;;;;;26.05;5.43;;;6.70;50.80;;;;;;7389513;19;20346;-71
2022/11/26 01:14:45;;;;;;;13.50;5.20;;;6.80;50.60;;;;;;7389598;19;20752;-71
2022/11/26 01:17:14;;;;;;;14.75;5.65;;;6.80;50.10;;;;;;7387805;19;20478;-71
2022/11/26 01:19:44;;;;;;;22.40;6.07;;;6.80;49.80;;;;;;7387853;19;20030;-72
2022/11/26 01:22:22;;;;;;;17.55;5.38;;;6.80;49.50;;;;;;7389179;19;20017;-71
2022/11/26 01:24:54;;;;;;;13.60;5.50;;;6.80;49.10;;;;;;7387893;19;20015;-72
2022/11/26 01:27:24;;;;;;;15.32;5.65;;;6.80;49.00;;;;;;7389279;19;20078;-72
2022/11/26 01:29:54;;;;;;;14.13;5.07;;;6.80;48.90;;;;;;7387310;19;20023;-72
2022/11/26 01:32:24;;;;;;;16.27;5.82;;;6.90;49.10;;;;;;7389213;19;20015;-72
2022/11/26 01:34:58;;;;;;;23.98;6.63;;;6.90;48.90;;;;;;7389202;19;20384;-72
2022/11/26 01:37:28;;;;;;;13.77;5.53;;;6.90;48.50;;;;;;7385452;19;20017;-72
2022/11/26 01:40:00;;;;;;;19.95;6.55;;;6.90;48.40;;;;;;7387025;19;20011;-72
2022/11/26 01:42:43;;;;;;;16.75;6.68;;;6.90;48.10;;;;;;7388672;19;20015;-71
2022/11/26 01:45:17;;;;;;;14.38;5.70;;;6.90;47.90;;;;;;7388980;19;20022;-72
2022/11/26 01:47:47;;;;;;;16.48;5.40;;;6.90;48.10;;;;;;7388151;19;20521;-71
2022/11/26 01:50:54;;;;;;;17.25;5.07;;;6.90;47.90;;;;;;7392031;19;20022;-71
2022/11/26 01:53:39;;;;;;;16.52;6.43;;;6.90;47.80;;;;;;7392294;19;20461;-72
2022/11/26 01:56:21;;;;;;;16.27;5.68;;;6.80;47.70;;;;;;7393654;19;20039;-71
2022/11/26 01:58:55;;;;;;;14.63;5.65;;;6.80;48.00;;;;;;7349145;19;20025;-71
2022/11/26 02:01:25;;;;;;;20.05;5.85;;;6.80;48.60;;;;;;7391474;19;20011;-71
2022/11/26 02:04:04;;;;;;;19.98;6.82;;;6.80;49.10;;;;;;7367666;19;20011;-72
2022/11/26 02:06:35;;;;;;;18.13;5.93;;;6.80;48.90;;;;;;7366083;19;20362;-72
2022/11/26 02:09:07;;;;;;;19.15;6.60;;;6.70;49.30;;;;;;7364959;19;20014;-71
2022/11/26 02:11:40;;;;;;;12.75;5.68;;;6.70;49.60;;;;;;7367502;19;20018;-71
2022/11/26 02:14:15;;;;;;;19.33;5.88;;;6.70;49.70;;;;;;7365095;19;20018;-71
2022/11/26 02:17:12;;;;;;;15.93;6.10;;;6.70;50.00;;;;;;7365668;19;20019;-71
2022/11/26 02:20:26;;;;;;;18.08;6.22;;;6.70;50.50;;;;;;7364899;19;20018;-71
2022/11/26 02:23:32;;;;;;;19.25;6.60;;;6.70;50.40;;;;;;7366973;19;20010;-71
2022/11/26 02:26:34;;;;;;;16.27;6.40;;;6.60;49.90;;;;;;7367366;19;20043;-72
2022/11/26 02:29:13;;;;;;;17.50;6.28;;;6.50;50.00;;;;;;7364715;19;20604;-72
2022/11/26 02:31:50;;;;;;;20.90;6.50;;;6.50;50.70;;;;;;7366483;19;20051;-72
2022/11/26 02:34:26;;;;;;;21.35;6.63;;;6.40;50.70;;;;;;7388225;19;20955;-72
2022/11/26 02:37:07;;;;;;;17.25;6.93;;;6.50;51.50;;;;;;7364808;19;20044;-72
2022/11/26 02:39:37;;;;;;;18.58;6.80;;;6.50;51.60;;;;;;7363717;19;20018;-71
2022/11/26 02:42:24;;;;;;;18.10;6.78;;;6.50;51.60;;;;;;7366010;19;20007;-72
2022/11/26 02:44:56;;;;;;;16.67;6.57;;;6.50;52.10;;;;;;7366438;19;20042;-72
2022/11/26 02:47:30;;;;;;;16.15;7.38;;;6.50;51.70;;;;;;7366163;19;20038;-72
2022/11/26 02:50:03;;;;;;;17.35;6.80;;;6.60;52.30;;;;;;7367040;19;20022;-72
2022/11/26 02:52:34;;;;;;;;;;;6.50;51.70;;;;;;7366366;19;20018;-73
2022/11/26 02:55:07;;;;;;;19.98;6.88;;;6.50;51.70;;;;;;7387780;19;19938;-72
2022/11/26 02:57:44;;;;;;;16.90;6.97;;;6.50;52.30;;;;;;7362728;19;20522;-72
2022/11/26 03:00:15;;;;;;;23.85;8.25;;;6.60;52.50;;;;;;7369346;19;20011;-72
2022/11/26 03:02:51;;;;;;;18.40;8.07;;;6.60;52.80;;;;;;7397352;19;20007;-72
2022/11/26 03:05:22;;;;;;;20.63;8.07;;;6.60;52.90;;;;;;7394089;19;20015;-71
2022/11/26 03:07:54;;;;;;;22.00;9.13;;;6.60;53.10;;;;;;7393559;19;20482;-71
2022/11/26 03:10:28;;;;;;;22.58;8.25;;;6.60;53.20;;;;;;7390843;19;20019;-71
2022/11/26 03:12:58;;;;;;;17.48;8.77;;;6.60;53.30;;;;;;7393316;19;20006;-71
2022/11/26 03:15:28;;;;;;;20.27;8.88;;;6.60;53.50;;;;;;7393666;19;20382;-71
2022/11/26 03:18:01;;;;;;;17.95;8.45;;;6.60;53.60;;;;;;7391852;19;20018;-71
2022/11/26 03:20:30;;;;;;;19.23;7.65;;;6.60;53.60;;;;;;7392682;19;20074;-71
2022/11/26 03:23:00;;;;;;;17.90;7.30;;;6.70;53.70;;;;;;7393117;19;20425;-71
2022/11/26 03:25:30;;;;;;;18.92;7.22;;;6.70;53.70;;;;;;7393147;19;20014;-71
2022/11/26 03:28:00;;;;;;;14.20;6.93;;;6.70;53.40;;;;;;7392588;19;20011;-71
2022/11/26 03:30:30;;;;;;;20.75;7.05;;;6.70;53.30;;;;;;7392762;19;20010;-71
2022/11/26 03:33:02;;;;;;;23.35;6.65;;;6.70;53.10;;;;;;7392634;19;20014;-71
2022/11/26 03:35:32;;;;;;;18.27;7.38;;;6.70;52.70;;;;;;7392623;19;20029;-71
2022/11/26 03:38:02;;;;;;;15.93;6.53;;;6.70;52.20;;;;;;7391162;19;20074;-72
2022/11/26 03:40:32;;;;;;;19.15;6.38;;;6.70;51.80;;;;;;7392104;19;20363;-71
2022/11/26 03:43:01;;;;;;;21.65;6.20;;;6.70;51.70;;;;;;7392128;19;20066;-71
2022/11/26 03:45:31;;;;;;;24.42;6.65;;;6.70;51.70;;;;;;7392565;19;20020;-71
2022/11/26 03:48:04;;;;;;;18.63;6.53;;;6.70;51.70;;;;;;7391932;19;20014;-71
2022/11/26 03:50:34;;;;;;;17.10;5.85;;;6.70;51.60;;;;;;7389749;19;20018;-71
2022/11/26 03:53:04;;;;;;;21.15;6.50;;;6.70;51.60;;;;;;7390643;19;20514;-71
2022/11/26 03:55:33;;;;;;;17.70;6.65;;;6.70;50.70;;;;;;7392305;19;20018;-70
2022/11/26 03:58:03;;;;;;;16.73;6.05;;;6.70;50.70;;;;;;7390200;19;20514;-71
2022/11/26 04:00:33;;;;;;;18.73;5.78;;;6.60;50.40;;;;;;7391434;19;20040;-72
2022/11/26 04:03:05;;;;;;;15.50;5.85;;;6.60;50.20;;;;;;7391536;19;20038;-71
2022/11/26 04:05:35;;;;;;;19.27;6.13;;;6.50;50.70;;;;;;7391618;19;20018;-71
2022/11/26 04:08:05;;;;;;;17.17;5.70;;;6.50;50.60;;;;;;7391073;19;20094;-71
2022/11/26 04:10:35;;;;;;;27.05;8.00;;;6.50;50.50;;;;;;7391048;19;20013;-71
2022/11/26 04:13:05;;;;;;;20.67;7.22;;;6.50;50.50;;;;;;7389935;19;20566;-71
2022/11/26 04:15:36;;;;;;;19.52;7.00;;;6.40;50.70;;;;;;7391340;19;20470;-71
2022/11/26 04:18:08;;;;;;;20.95;6.60;;;6.40;51.20;;;;;;7389869;19;20078;-71
2022/11/26 04:20:38;;;;;;;19.05;6.93;;;6.40;51.20;;;;;;7391094;19;20039;-71
2022/11/26 04:23:08;;;;;;;21.67;7.60;;;6.40;51.50;;;;;;7391025;19;20029;-71
2022/11/26 04:25:38;;;;;;;21.60;7.18;;;6.50;51.60;;;;;;7389818;19;20018;-71
2022/11/26 04:28:08;;;;;;;19.20;7.65;;;6.40;51.60;;;;;;7390387;19;20018;-71
2022/11/26 04:30:38;;;;;;;16.27;7.05;;;6.40;51.60;;;;;;7390643;19;20014;-71
2022/11/26 04:33:10;;;;;;;17.60;7.05;;;6.40;52.00;;;;;;7390869;19;20014;-70
2022/11/26 04:35:40;;;;;;;14.77;7.40;;;6.40;52.10;;;;;;7350732;19;20015;-71
2022/11/26 04:38:10;;;;;;;19.08;7.22;;;6.40;51.80;;;;;;7385916;19;20018;-70
2022/11/26 04:40:40;;;;;;;20.42;7.75;;;6.40;52.20;;;;;;7364777;19;20031;-71
2022/11/26 04:43:10;;;;;;;18.40;7.40;;;6.40;52.50;;;;;;7361136;19;20022;-71
2022/11/26 04:45:40;;;;;;;21.85;7.50;;;6.40;52.60;;;;;;7362907;19;20019;-71
2022/11/26 04:48:12;;;;;;;22.38;7.72;;;6.40;52.90;;;;;;7361611;19;20027;-71
2022/11/26 04:50:42;;;;;;;25.85;7.82;;;6.30;53.20;;;;;;7361746;19;20378;-70
2022/11/26 04:53:12;;;;;;;18.95;7.65;;;6.30;53.50;;;;;;7383521;19;20025;-71
2022/11/26 04:55:42;;;;;;;25.58;7.97;;;6.30;54.10;;;;;;7361473;19;20064;-72
2022/11/26 04:58:12;;;;;;;21.58;7.57;;;6.30;54.20;;;;;;7361537;19;20015;-72
2022/11/26 05:00:42;;;;;;;19.83;8.40;;;6.20;54.10;;;;;;7360947;19;20014;-72
2022/11/26 05:03:15;;;;;;;22.58;8.73;;;6.20;55.70;;;;;;7362122;19;20021;-72
2022/11/26 05:05:45;;;;;;;16.15;9.10;;;6.10;55.40;;;;;;7361750;19;20018;-71
2022/11/26 05:08:15;;;;;;;22.05;8.65;;;6.10;55.50;;;;;;7382477;19;20019;-71
2022/11/26 05:10:45;;;;;;;24.05;9.15;;;6.10;56.30;;;;;;7361047;19;20014;-71
2022/11/26 05:13:15;;;;;;;26.50;9.40;;;6.00;55.90;;;;;;7362132;19;20517;-71
2022/11/26 05:15:44;;;;;;;25.70;10.23;;;6.00;56.30;;;;;;7362256;19;20074;-72
2022/11/26 05:18:17;;;;;;;28.85;9.55;;;5.90;56.20;;;;;;7360363;19;20011;-71
2022/11/26 05:20:47;;;;;;;25.27;10.00;;;5.80;56.10;;;;;;7361817;19;20019;-72
2022/11/26 05:23:17;;;;;;;28.35;11.02;;;5.80;55.80;;;;;;7382704;19;20018;-71
2022/11/26 05:25:46;;;;;;;23.73;9.85;;;5.60;55.90;;;;;;7366705;19;20022;-72
2022/11/26 05:28:16;;;;;;;19.45;10.07;;;5.50;55.80;;;;;;7367928;19;20098;-71
2022/11/26 05:30:46;;;;;;;31.10;10.27;;;5.40;55.70;;;;;;7368701;19;20022;-72
2022/11/26 05:33:19;;;;;;;23.52;9.40;;;5.30;55.90;;;;;;7368405;19;20462;-72
2022/11/26 05:35:48;;;;;;;20.92;10.18;;;5.20;56.20;;;;;;7367894;19;20030;-71
2022/11/26 05:38:18;;;;;;;28.83;10.77;;;5.30;57.10;;;;;;7397635;19;20030;-71
2022/11/26 05:40:48;;;;;;;24.40;10.82;;;5.20;57.10;;;;;;7394993;19;20015;-71
2022/11/26 05:43:18;;;;;;;23.67;11.25;;;5.20;57.30;;;;;;7393431;19;20092;-71
2022/11/26 05:45:48;;;;;;;30.92;12.05;;;5.10;57.50;;;;;;7394046;19;20015;-71
2022/11/26 05:48:20;;;;;;;33.38;11.30;;;5.00;58.00;;;;;;7392911;19;20014;-72
2022/11/26 05:50:50;;;;;;;27.40;11.48;;;5.00;58.10;;;;;;7392522;19;20030;-72
2022/11/26 05:53:23;;;;;;;28.23;11.52;;;5.00;58.40;;;;;;7393095;19;20082;-71
2022/11/26 05:55:53;;;;;;;36.83;12.70;;;5.00;60.10;;;;;;7393610;19;20492;-72
2022/11/26 05:58:23;;;;;;;39.72;12.98;;;5.00;59.60;;;;;;7392135;19;20025;-72
2022/11/26 06:00:53;;;;;;;29.80;12.63;;;5.10;60.20;;;;;;7393391;19;20015;-71
2022/11/26 06:03:25;;;;;;;33.45;13.75;;;5.00;60.10;;;;;;7393130;19;20074;-70
2022/11/26 06:05:55;;;;;;;35.28;16.08;;;5.00;60.20;;;;;;7392985;19;20481;-71
2022/11/26 06:08:25;;;;;;;32.50;15.00;;;5.00;60.40;;;;;;7392130;19;20477;-71
2022/11/26 06:10:55;;;;;;;36.35;16.27;;;4.90;61.20;;;;;;7393076;19;20057;-72
2022/11/26 06:13:25;;;;;;;28.98;15.95;;;4.90;61.30;;;;;;7392790;19;20022;-72
2022/11/26 06:15:55;;;;;;;35.53;16.08;;;4.80;61.30;;;;;;7392458;19;20015;-72
2022/11/26 06:18:27;;;;;;;37.90;16.00;;;4.80;61.40;;;;;;7391459;19;20015;-71
2022/11/26 06:21:01;;;;;;;41.65;18.35;;;4.70;61.20;;;;;;7392874;19;20085;-70
2022/11/26 06:23:31;;;;;;;50.45;20.23;;;4.70;61.20;;;;;;7392857;19;20029;-71
2022/11/26 06:26:01;;;;;;;41.17;19.15;;;4.70;61.40;;;;;;7392298;19;20018;-72
2022/11/26 06:28:31;;;;;;;46.40;18.17;;;4.80;61.80;;;;;;7391777;19;20078;-71
2022/11/26 06:31:01;;;;;;;35.85;15.93;;;4.70;61.80;;;;;;7391965;19;20018;-71
2022/11/26 06:33:33;;;;;;;35.65;15.30;;;4.70;61.90;;;;;;7392623;19;20022;-71
2022/11/26 06:36:05;;;;;;;36.85;15.65;;;4.70;62.00;;;;;;7391157;19;20505;-72
2022/11/26 06:38:35;;;;;;;33.97;15.77;;;4.60;61.90;;;;;;7390830;19;20022;-72
2022/11/26 06:41:07;;;;;;;35.60;16.30;;;4.60;61.90;;;;;;7253710;19;2708586;-71
2022/11/26 06:43:37;;;;;;;40.22;16.88;;;4.70;62.00;;;;;;7359460;19;20018;-71
2022/11/26 06:46:09;;;;;;;30.60;15.02;;;4.70;62.30;;;;;;7391468;19;20017;-72
2022/11/26 06:48:42;;;;;;;24.42;13.70;;;4.70;62.40;;;;;;7364043;19;20416;-72
2022/11/26 06:51:14;;;;;;;35.15;15.57;;;4.70;62.50;;;;;;7387122;19;20025;-71
2022/11/26 06:53:44;;;;;;;27.83;14.18;;;4.60;62.50;;;;;;7366316;19;20006;-72
2022/11/26 06:56:15;;;;;;;22.75;13.98;;;4.60;62.60;;;;;;7365269;19;20010;-71
2022/11/26 06:58:48;;;;;;;30.60;14.88;;;4.70;62.70;;;;;;7364157;19;20024;-72
2022/11/26 07:01:22;;;;;;;31.80;15.25;;;4.70;62.70;;;;;;7365182;19;20025;-72
2022/11/26 07:03:55;;;;;;;26.58;17.40;;;4.70;62.90;;;;;;7365973;19;20081;-71
2022/11/26 07:06:27;;;;;;;31.02;17.67;;;4.70;62.90;;;;;;7368124;19;20022;-71
2022/11/26 07:08:59;;;;;;;34.58;16.48;;;4.70;63.00;;;;;;7385401;19;20022;-71
2022/11/26 07:11:30;;;;;;;26.13;15.55;;;4.80;63.40;;;;;;7365023;19;20018;-71
2022/11/26 07:14:00;;;;;;;23.60;13.70;;;4.80;63.60;;;;;;7364669;19;20007;-71
2022/11/26 07:16:31;;;;;;;25.95;14.73;;;4.80;63.60;;;;;;7365192;19;20010;-72
2022/11/26 07:19:04;;;;;;;29.98;14.52;;;4.90;63.90;;;;;;7363039;19;20044;-71
2022/11/26 07:21:34;;;;;;;32.15;16.33;;;4.80;63.90;;;;;;7364647;19;20022;-71
2022/11/26 07:24:03;;;;;;;31.83;16.95;;;4.80;63.90;;;;;;7385780;19;20029;-71
2022/11/26 07:26:33;;;;;;;33.63;18.25;;;4.90;64.00;;;;;;7364298;19;20019;-70
2022/11/26 07:29:03;;;;;;;30.83;17.77;;;5.00;64.30;;;;;;7363242;19;20490;-71
2022/11/26 07:31:34;;;;;;;29.85;16.88;;;5.10;64.40;;;;;;7364056;19;20466;-72
2022/11/26 07:34:07;;;;;;;30.83;17.05;;;5.20;64.60;;;;;;7365042;19;20014;-72
2022/11/26 07:36:41;;;;;;;33.63;18.50;;;5.20;64.80;;;;;;7363858;19;20489;-71
2022/11/26 07:39:12;;;;;;;35.35;19.75;;;5.30;64.90;;;;;;7384382;19;20996;-72
2022/11/26 07:41:42;;;;;;;36.78;20.65;;;5.40;65.00;;;;;;7367351;19;20013;-73
2022/11/26 07:44:14;;;;;;;29.95;19.17;;;5.40;65.10;;;;;;7365259;19;20006;-71
2022/11/26 07:46:44;;;;;;;37.05;19.92;;;5.50;65.30;;;;;;7363385;19;20006;-71
2022/11/26 07:49:16;;;;;;;30.58;18.63;;;5.60;65.40;;;;;;7362640;19;20339;-72
2022/11/26 07:51:46;;;;;;;27.98;17.60;;;5.60;65.40;;;;;;7363851;19;20015;-71
2022/11/26 07:54:16;;;;;;;29.13;16.88;;;5.60;65.50;;;;;;7385324;19;20046;-72
2022/11/26 07:56:46;;;;;;;28.42;16.65;;;5.70;65.60;;;;;;7362223;19;20478;-71
2022/11/26 07:59:16;;;;;;;28.80;14.13;;;5.70;65.50;;;;;;7361391;19;20031;-71
2022/11/26 08:01:46;;;;;;;27.17;12.70;;;5.70;65.50;;;;;;7363707;19;20034;-72
2022/11/26 08:04:18;;;;;;;29.25;12.82;;;5.70;65.20;;;;;;7363690;19;20074;-71
2022/11/26 08:06:48;;;;;;;24.13;12.00;;;5.70;64.50;;;;;;7362083;19;20014;-71
2022/11/26 08:09:18;;;;;;;28.55;13.73;;;5.60;64.40;;;;;;7382542;19;20021;-71
2022/11/26 08:11:48;;;;;;;22.63;13.10;;;5.70;64.70;;;;;;7362193;19;20101;-72
2022/11/26 08:14:18;;;;;;;28.08;12.48;;;5.80;64.40;;;;;;7362477;19;20076;-70
2022/11/26 08:16:47;;;;;;;25.10;12.52;;;5.80;64.10;;;;;;7363014;19;20014;-72
2022/11/26 08:19:20;;;;;;;24.80;13.43;;;5.80;63.50;;;;;;7361976;19;20017;-71
2022/11/26 08:21:50;;;;;;;23.73;12.95;;;5.90;63.20;;;;;;7363194;19;20014;-71
2022/11/26 08:24:22;;;;;;;22.83;13.15;;;6.00;63.10;;;;;;7384085;19;20015;-72
2022/11/26 08:26:52;;;;;;;25.67;13.25;;;6.10;63.20;;;;;;7362631;19;20007;-71
2022/11/26 08:29:22;;;;;;;21.80;12.13;;;6.10;61.10;;;;;;7360685;19;20014;-71
2022/11/26 08:31:52;;;;;;;22.92;12.07;;;6.10;59.90;;;;;;7361811;19;20021;-72
2022/11/26 08:34:25;;;;;;;20.75;11.50;;;6.10;59.20;;;;;;7363280;19;20013;-71
2022/11/26 08:36:56;;;;;;;26.67;12.60;;;6.20;59.40;;;;;;7363949;19;20018;-70
2022/11/26 08:39:26;;;;;;;25.95;11.50;;;6.30;59.20;;;;;;7363441;19;20019;-72
2022/11/26 08:41:56;;;;;;;18.75;11.02;;;6.30;58.40;;;;;;7382857;19;20573;-72
2022/11/26 08:44:26;;;;;;;23.77;11.48;;;6.30;56.20;;;;;;7360940;19;20014;-72
2022/11/26 08:46:59;;;;;;;24.67;12.23;;;6.50;56.50;;;;;;7361790;19;20493;-71
2022/11/26 08:49:31;;;;;;;22.67;11.70;;;6.50;54.40;;;;;;7361791;19;20010;-71
2022/11/26 08:52:01;;;;;;;18.75;10.93;;;6.60;53.40;;;;;;7361532;19;20010;-71
2022/11/26 08:54:32;;;;;;;19.58;10.88;;;6.60;51.60;;;;;;7360905;19;20026;-71
2022/11/26 08:57:02;;;;;;;20.25;12.05;;;6.70;51.60;;;;;;7382524;19;20010;-71
2022/11/26 08:59:31;;;;;;;23.70;11.98;;;6.80;49.80;;;;;;7358687;19;20010;-71
2022/11/26 09:02:01;;;;;;;22.98;10.95;;;6.90;48.80;;;;;;7361157;19;20018;-71
2022/11/26 09:04:34;;;;;;;17.60;10.70;;;6.90;47.40;;;;;;7361049;19;20007;-71
2022/11/26 09:07:04;;;;;;;24.42;11.15;;;6.90;45.50;;;;;;7360757;19;20929;-71
2022/11/26 09:09:33;;;;;;;19.73;11.32;;;7.00;44.20;;;;;;7358686;19;20096;-71
2022/11/26 09:12:03;;;;;;;23.88;11.48;;;7.10;43.90;;;;;;7382200;19;20019;-71
2022/11/26 09:14:38;;;;;;;26.27;11.23;;;7.10;42.70;;;;;;7360301;19;20017;-71
2022/11/26 09:17:09;;;;;;;23.58;10.30;;;7.10;41.70;;;;;;7360387;19;20046;-70
2022/11/26 09:19:42;;;;;;;20.40;9.93;;;7.20;41.10;;;;;;7360744;19;20015;-71
2022/11/26 09:22:12;;;;;;;21.10;9.77;;;7.20;39.90;;;;;;7361423;19;20133;-72
2022/11/26 09:24:42;;;;;;;19.67;10.15;;;7.30;38.70;;;;;;7359612;19;20035;-71
2022/11/26 09:27:12;;;;;;;17.92;10.30;;;7.40;38.10;;;;;;7381611;19;20021;-71
2022/11/26 09:29:42;;;;;;;22.55;10.35;;;7.50;37.70;;;;;;7358505;19;20039;-71
2022/11/26 09:32:12;;;;;;;20.10;10.70;;;7.50;37.20;;;;;;7360422;19;20017;-71
2022/11/26 09:34:57;;;;;;;24.17;11.45;;;7.50;36.70;;;;;;7363355;19;20007;-72
2022/11/26 09:37:27;;;;;;;18.58;11.30;;;7.60;37.20;;;;;;7360556;19;20442;-72
2022/11/26 09:39:56;;;;;;;22.30;11.25;;;7.50;35.90;;;;;;7358766;19;20025;-70
2022/11/26 09:42:36;;;;;;;18.98;10.38;;;7.60;35.30;;;;;;7359430;19;20358;-71
2022/11/26 09:45:13;;;;;;;35.88;12.10;;;7.60;32.40;;;;;;7382072;19;20438;-71
2022/11/26 09:47:46;;;;;;;16.48;10.02;;;7.80;35.00;;;;;;7387968;19;20006;-71
2022/11/26 09:50:30;;;;;;;20.42;10.90;;;7.90;33.50;;;;;;7360892;19;20065;-72
2022/11/26 09:53:03;;;;;;;18.55;10.15;;;7.90;32.30;;;;;;7381849;19;20027;-71
2022/11/26 09:55:37;;;;;;;19.23;10.75;;;7.90;31.10;;;;;;7360268;19;20100;-70
2022/11/26 09:58:13;;;;;;;18.77;10.43;;;8.00;31.00;;;;;;7380582;19;20047;-71
2022/11/26 10:00:46;;;;;;;22.67;10.63;;;8.00;29.50;;;;;;7358744;19;20251;-73
2022/11/26 10:03:20;;;;;;;23.00;10.05;;;8.10;29.70;;;;;;7359344;19;20014;-71
2022/11/26 10:05:59;;;;;;;19.88;9.52;;;8.10;28.30;;;;;;7360000;19;20098;-71
2022/11/26 10:09:12;;;;;;;16.27;9.48;;;8.10;25.90;;;;;;7358990;19;20037;-72
2022/11/26 10:11:50;;;;;;;22.67;10.95;;;8.20;26.50;;;;;;7362507;19;20482;-71
2022/11/26 10:14:34;;;;;;;21.55;10.15;;;8.40;26.90;;;;;;7367052;19;20040;-73
2022/11/26 10:17:17;;;;;;;21.95;9.70;;;8.30;25.00;;;;;;7367221;19;20010;-72
2022/11/26 10:19:56;;;;;;;21.55;9.52;;;8.50;24.10;;;;;;7364297;19;20652;-71
2022/11/26 10:22:33;;;;;;;21.75;10.00;;;8.60;23.70;;;;;;7363873;19;20029;-70
2022/11/26 10:25:04;;;;;;;16.73;8.98;;;8.70;23.10;;;;;;7387624;19;20025;-70
2022/11/26 10:27:36;;;;;;;20.48;9.88;;;8.80;21.30;;;;;;7365973;19;20362;-71
2022/11/26 10:30:18;;;;;;;16.40;9.70;;;8.80;20.30;;;;;;7367275;19;20010;-70
2022/11/26 10:32:50;;;;;;;14.15;9.00;;;8.90;20.80;;;;;;7366314;19;20080;-72
2022/11/26 10:35:21;;;;;;;21.58;9.50;;;9.00;21.10;;;;;;7365853;19;20042;-71
2022/11/26 10:37:55;;;;;;;19.42;8.95;;;9.10;18.00;;;;;;7365725;19;20014;-72
2022/11/26 10:40:28;;;;;;;18.17;8.05;;;9.10;16.40;;;;;;7361160;19;20327;-71
2022/11/26 10:43:07;;;;;;;17.33;7.25;;;9.00;14.80;;;;;;7388122;19;20038;-71
2022/11/26 10:45:40;;;;;;;18.52;7.03;;;8.90;16.00;;;;;;7365189;19;20011;-72
2022/11/26 10:48:20;;;;;;;16.70;6.68;;;8.80;12.90;;;;;;7365263;19;20464;-70
2022/11/26 10:50:59;;;;;;;12.00;6.20;;;8.70;12.80;;;;;;7365300;19;20014;-71
2022/11/26 10:53:47;;;;;;;14.75;6.82;;;8.70;14.90;;;;;;7365598;19;20014;-70
2022/11/26 10:56:21;;;;;;;16.83;7.60;;;8.70;13.10;;;;;;7365565;19;20013;-70
2022/11/26 10:58:53;;;;;;;19.52;6.53;;;8.80;13.20;;;;;;7364641;19;20018;-71
2022/11/26 11:01:23;;;;;;;20.52;7.53;;;9.00;12.20;;;;;;7380793;19;20083;-72
2022/11/26 11:03:56;;;;;;;14.57;7.88;;;9.10;13.10;;;;;;7386362;19;20499;-71
2022/11/26 11:06:43;;;;;;;14.23;8.05;;;9.20;9.80;;;;;;7364740;19;20052;-71
2022/11/26 11:09:31;;;;;;;11.55;6.07;;;9.20;8.90;;;;;;7363148;19;20007;-70
2022/11/26 11:12:20;;;;;;;12.82;6.72;;;9.00;10.10;;;;;;7364979;19;20021;-71
2022/11/26 11:14:52;;;;;;;14.40;6.70;;;9.10;11.60;;;;;;7365048;19;20090;-70
2022/11/26 11:17:30;;;;;;;12.95;6.38;;;8.80;9.70;;;;;;7365210;19;20422;-71
2022/11/26 11:20:03;;;;;;;11.18;6.72;;;8.90;10.40;;;;;;7363312;19;20007;-71
2022/11/26 11:22:33;;;;;;;15.30;6.88;;;9.00;11.40;;;;;;7359515;19;20015;-70
2022/11/26 11:25:06;;;;;;;11.48;6.63;;;8.90;11.90;;;;;;7385757;19;20035;-71
2022/11/26 11:27:42;;;;;;;13.13;7.03;;;8.90;12.30;;;;;;7366412;19;20007;-70
2022/11/26 11:30:26;;;;;;;19.92;6.88;;;8.90;12.20;;;;;;7362266;19;20033;-69
2022/11/26 11:32:57;;;;;;;18.63;6.50;;;9.00;10.70;;;;;;7363599;19;20028;-71
2022/11/26 11:35:30;;;;;;;15.23;6.22;;;8.80;11.40;;;;;;7364090;19;20032;-71
2022/11/26 11:38:00;;;;;;;14.52;7.45;;;8.90;11.40;;;;;;7364411;19;20017;-71
2022/11/26 11:40:42;;;;;;;16.02;8.80;;;9.00;12.30;;;;;;7363325;19;20015;-70
2022/11/26 11:43:18;;;;;;;19.77;8.57;;;9.10;12.30;;;;;;7383599;19;20454;-70
2022/11/26 11:45:57;;;;;;;16.33;7.78;;;9.00;12.40;;;;;;7363173;19;20035;-71
2022/11/26 11:48:42;;;;;;;15.75;7.95;;;8.90;12.90;;;;;;7362948;19;20014;-71
2022/11/26 11:51:21;;;;;;;16.92;7.80;;;8.90;12.80;;;;;;7365836;19;20551;-71
2022/11/26 11:54:02;;;;;;;18.40;7.35;;;9.10;14.10;;;;;;7391298;19;20025;-71
2022/11/26 11:56:42;;;;;;;16.17;7.80;;;9.30;12.20;;;;;;7391030;19;20474;-71
2022/11/26 11:59:36;;;;;;;20.58;7.45;;;9.40;11.80;;;;;;7389753;19;20010;-71
2022/11/26 12:02:30;;;;;;;15.60;7.72;;;9.30;9.50;;;;;;7390767;19;20010;-71
2022/11/26 12:05:08;;;;;;;16.17;7.15;;;9.40;11.00;;;;;;7391426;19;20010;-71
2022/11/26 12:07:41;;;;;;;13.95;6.88;;;9.30;11.10;;;;;;7390733;19;20017;-72
2022/11/26 12:10:15;;;;;;;14.68;7.45;;;9.20;11.90;;;;;;7389194;19;20403;-72
2022/11/26 12:12:51;;;;;;;16.85;7.13;;;9.00;11.70;;;;;;7390712;19;20009;-71
2022/11/26 12:15:27;;;;;;;16.33;7.47;;;8.90;12.90;;;;;;7390855;19;20011;-72
2022/11/26 12:18:02;;;;;;;17.52;9.95;;;8.80;14.50;;;;;;7391011;19;20014;-72
2022/11/26 12:20:36;;;;;;;21.13;8.68;;;8.90;15.10;;;;;;7390481;19;20011;-74
2022/11/26 12:23:22;;;;;;;21.10;8.23;;;8.90;15.00;;;;;;7389380;19;20015;-72
2022/11/26 12:25:58;;;;;;;15.85;8.57;;;8.90;15.10;;;;;;7390970;19;20047;-72
2022/11/26 12:28:33;;;;;;;;;;;8.80;15.00;;;;;;7390269;19;20018;-72
2022/11/26 12:31:07;;;;;;;15.68;8.52;;;8.80;15.00;;;;;;7390382;19;20246;-72
2022/11/26 12:33:42;;;;;;;16.33;8.23;;;8.80;15.00;;;;;;7389228;19;20011;-72
2022/11/26 12:36:20;;;;;;;18.92;7.93;;;8.70;15.80;;;;;;7390021;19;20090;-73
2022/11/26 12:38:54;;;;;;;14.93;7.32;;;8.70;16.00;;;;;;7389087;19;20015;-73
2022/11/26 12:41:28;;;;;;;19.00;8.20;;;8.60;16.40;;;;;;7390326;19;20021;-73
2022/11/26 12:44:06;;;;;;;16.15;7.57;;;8.50;16.60;;;;;;7387833;19;20011;-72
2022/11/26 12:46:41;;;;;;;13.27;7.60;;;8.50;17.00;;;;;;7389708;19;20011;-72
2022/11/26 12:49:15;;;;;;;;;;;8.50;16.20;;;;;;7391183;19;20381;-73
2022/11/26 12:51:51;;;;;;;21.42;10.23;;;8.50;17.50;;;;;;7390120;19;19925;-73
2022/11/26 12:54:25;;;;;;;14.20;8.82;;;8.50;18.00;;;;;;7389132;19;20442;-71
2022/11/26 12:57:00;;;;;;;20.70;8.95;;;8.60;18.00;;;;;;7389515;19;20017;-72
2022/11/26 12:59:37;;;;;;;18.90;8.63;;;8.70;16.60;;;;;;7388084;19;20462;-72
2022/11/26 13:02:21;;;;;;;18.75;8.80;;;8.70;15.10;;;;;;7351881;19;20030;-72
2022/11/26 13:04:52;;;;;;;17.55;8.45;;;8.80;15.70;;;;;;7386558;19;20018;-72
2022/11/26 13:07:49;;;;;;;18.83;7.85;;;8.80;15.00;;;;;;7359428;19;20021;-71
2022/11/26 13:10:29;;;;;;;19.35;8.30;;;8.80;15.10;;;;;;7359792;19;20233;-72
2022/11/26 13:13:12;;;;;;;12.63;6.30;;;8.90;14.20;;;;;;7361314;19;20102;-72
2022/11/26 13:15:50;;;;;;;17.27;6.35;;;8.80;9.40;;;;;;7360950;19;20501;-72